createdAt,value
2022-10-28T00:01:48.851Z,13.62
2022-10-28T00:04:35.050Z,13.68
2022-10-28T00:07:20.951Z,13.68
2022-10-28T00:10:07.445Z,13.67
2022-10-28T00:12:53.572Z,13.62
2022-10-28T00:15:39.490Z,13.62
2022-10-28T00:18:25.434Z,13.58
2022-10-28T00:21:13.902Z,13.50
2022-10-28T00:23:59.996Z,13.56
2022-10-28T00:26:46.307Z,13.55
2022-10-28T00:29:32.446Z,13.52
2022-10-28T00:32:18.461Z,13.53
2022-10-28T00:35:04.785Z,13.53
2022-10-28T00:37:53.472Z,13.51
2022-10-28T00:40:39.742Z,13.47
2022-10-28T00:43:49.678Z,13.42
2022-10-28T00:46:42.786Z,13.46
2022-10-28T00:49:30.778Z,13.47
2022-10-28T00:52:19.600Z,13.30
2022-10-28T00:55:05.942Z,13.40
2022-10-28T00:57:56.688Z,13.41
2022-10-28T01:00:42.782Z,13.41
2022-10-28T01:03:28.545Z,13.42
2022-10-28T01:06:14.781Z,13.40
2022-10-28T01:09:00.797Z,13.42
2022-10-28T01:11:55.231Z,13.37
2022-10-28T01:14:51.322Z,13.34
2022-10-28T01:17:49.483Z,13.26
2022-10-28T01:20:50.762Z,13.26
2022-10-28T01:23:58.448Z,13.36
2022-10-28T01:27:22.980Z,13.28
2022-10-28T01:30:17.419Z,13.29
2022-10-28T01:33:10.233Z,13.25
2022-10-28T01:36:19.288Z,13.35
2022-10-28T01:39:29.005Z,13.36
2022-10-28T01:42:41.280Z,13.21
2022-10-28T01:45:35.046Z,13.36
2022-10-28T01:48:30.496Z,13.38
2022-10-28T01:51:42.848Z,13.32
2022-10-28T01:54:33.951Z,13.39
2022-10-28T01:57:23.247Z,13.45
2022-10-28T02:00:13.121Z,13.49
2022-10-28T02:03:01.851Z,13.45
2022-10-28T02:06:00.036Z,13.44
2022-10-28T02:08:53.466Z,13.51
2022-10-28T02:11:53.598Z,13.55
2022-10-28T02:18:08.945Z,13.44
2022-10-28T02:20:56.954Z,13.59
2022-10-28T02:23:54.181Z,13.61
2022-10-28T02:26:47.628Z,13.65
2022-10-28T02:29:42.894Z,13.58
2022-10-28T02:32:34.801Z,13.57
2022-10-28T02:35:34.480Z,13.61
2022-10-28T02:38:38.463Z,13.63
2022-10-28T02:41:39.107Z,13.63
2022-10-28T02:44:32.721Z,13.64
2022-10-28T02:47:23.462Z,13.68
2022-10-28T02:50:15.202Z,13.68
2022-10-28T02:53:03.887Z,13.67
2022-10-28T02:55:53.390Z,13.66
2022-10-28T02:58:41.267Z,13.61
2022-10-28T03:01:28.542Z,13.54
2022-10-28T03:04:15.804Z,13.66
2022-10-28T03:07:03.370Z,13.62
2022-10-28T03:09:51.819Z,13.56
2022-10-28T03:12:39.156Z,13.58
2022-10-28T03:15:26.578Z,13.57
2022-10-28T03:18:13.850Z,13.49
2022-10-28T03:21:00.966Z,13.49
2022-10-28T03:23:48.292Z,13.42
2022-10-28T03:26:35.099Z,13.32
2022-10-28T03:29:22.162Z,13.36
2022-10-28T03:32:09.168Z,13.29
2022-10-28T03:34:56.553Z,13.28
2022-10-28T03:37:44.477Z,13.23
2022-10-28T03:40:31.729Z,13.11
2022-10-28T03:43:19.162Z,13.21
2022-10-28T03:46:06.364Z,13.16
2022-10-28T03:48:53.798Z,13.14
2022-10-28T03:51:41.124Z,13.13
2022-10-28T03:54:28.299Z,13.05
2022-10-28T03:57:15.879Z,13.10
2022-10-28T04:00:03.354Z,13.03
2022-10-28T04:02:58.599Z,12.94
2022-10-28T04:05:45.872Z,13.01
2022-10-28T04:08:33.042Z,12.98
2022-10-28T04:11:20.439Z,13.00
2022-10-28T04:14:07.753Z,12.91
2022-10-28T04:16:55.055Z,12.87
2022-10-28T04:19:42.632Z,12.91
2022-10-28T04:22:29.177Z,12.91
2022-10-28T04:28:05.825Z,12.80
2022-10-28T04:30:51.853Z,12.86
2022-10-28T04:33:38.128Z,12.91
2022-10-28T04:36:24.256Z,12.86
2022-10-28T04:39:10.176Z,12.90
2022-10-28T04:41:56.008Z,12.88
2022-10-28T04:44:42.007Z,12.87
2022-10-28T04:47:28.173Z,12.87
2022-10-28T04:50:14.477Z,12.84
2022-10-28T04:53:00.920Z,12.79
2022-10-28T04:55:47.142Z,12.80
2022-10-28T04:58:33.054Z,12.75
2022-10-28T05:01:18.917Z,12.74
2022-10-28T05:04:04.786Z,12.62
2022-10-28T05:06:51.246Z,12.69
2022-10-28T05:09:37.436Z,12.67
2022-10-28T05:12:23.310Z,12.64
2022-10-28T05:15:10.401Z,12.65
2022-10-28T05:17:56.664Z,12.56
2022-10-28T05:20:42.448Z,12.46
2022-10-28T05:23:30.841Z,12.50
2022-10-28T05:26:17.416Z,12.57
2022-10-28T05:29:03.510Z,12.53
2022-10-28T05:31:49.574Z,12.51
2022-10-28T05:34:36.258Z,12.46
2022-10-28T05:37:22.232Z,12.43
2022-10-28T05:40:10.529Z,12.52
2022-10-28T05:42:57.050Z,12.49
2022-10-28T05:55:19.550Z,11.02
2022-10-28T05:58:05.687Z,11.15
2022-10-28T06:00:51.691Z,11.24
2022-10-28T06:03:37.553Z,11.47
2022-10-28T06:06:23.337Z,11.60
2022-10-28T06:09:09.217Z,11.75
2022-10-28T06:11:53.596Z,11.89
2022-10-28T06:14:39.329Z,12.09
2022-10-28T06:17:25.422Z,12.18
2022-10-28T06:20:11.572Z,12.27
2022-10-28T06:22:57.434Z,12.40
2022-10-28T06:25:43.456Z,12.38
2022-10-28T06:28:30.103Z,12.57
2022-10-28T06:31:16.329Z,12.61
2022-10-28T06:34:04.225Z,12.73
2022-10-28T06:36:50.317Z,12.77
2022-10-28T06:39:38.318Z,12.85
2022-10-28T06:42:24.257Z,12.94
2022-10-28T06:45:10.143Z,12.93
2022-10-28T06:48:00.927Z,13.08
2022-10-28T06:50:46.584Z,13.10
2022-10-28T06:53:32.516Z,13.23
2022-10-28T06:56:18.718Z,13.28
2022-10-28T06:59:04.452Z,13.25
2022-10-28T07:01:50.507Z,13.50
2022-10-28T07:04:36.748Z,13.43
2022-10-28T07:07:22.660Z,13.57
2022-10-28T07:10:08.510Z,13.58
2022-10-28T07:12:54.687Z,13.82
2022-10-28T07:15:40.972Z,13.87
2022-10-28T07:18:29.614Z,13.93
2022-10-28T07:21:15.698Z,14.10
2022-10-28T07:24:01.847Z,14.17
2022-10-28T07:26:51.968Z,14.21
2022-10-28T07:29:40.359Z,14.35
2022-10-28T07:32:26.268Z,14.44
2022-10-28T07:35:12.165Z,14.55
2022-10-28T07:37:58.995Z,14.63
2022-10-28T07:40:45.004Z,14.69
2022-10-28T07:43:30.982Z,14.79
2022-10-28T07:46:17.804Z,14.81
2022-10-28T07:49:04.046Z,14.88
2022-10-28T07:51:51.390Z,14.97
2022-10-28T07:54:37.330Z,15.08
2022-10-28T07:57:23.242Z,15.11
2022-10-28T08:00:09.865Z,15.14
2022-10-28T08:02:58.542Z,15.22
2022-10-28T08:05:44.549Z,15.36
2022-10-28T08:08:30.737Z,15.41
2022-10-28T08:11:25.008Z,15.48
2022-10-28T08:14:11.199Z,15.54
2022-10-28T08:16:57.112Z,15.70
2022-10-28T08:19:43.192Z,15.81
2022-10-28T08:22:28.963Z,15.92
2022-10-28T08:25:14.956Z,15.99
2022-10-28T08:28:01.108Z,16.03
2022-10-28T08:30:57.274Z,16.21
2022-10-28T08:33:52.871Z,16.34
2022-10-28T08:36:38.829Z,16.34
2022-10-28T08:39:24.821Z,16.48
2022-10-28T08:42:26.266Z,16.61
2022-10-28T08:45:21.464Z,16.73
2022-10-28T08:48:13.641Z,16.84
2022-10-28T08:51:04.158Z,16.86
2022-10-28T08:54:15.287Z,17.02
2022-10-28T08:57:03.087Z,17.19
2022-10-28T08:59:51.908Z,17.31
2022-10-28T09:02:53.025Z,17.41
2022-10-28T09:05:40.448Z,17.56
2022-10-28T09:08:28.727Z,17.63
2022-10-28T09:11:33.203Z,17.55
2022-10-28T09:14:31.404Z,17.75
2022-10-28T09:17:18.116Z,17.90
2022-10-28T09:20:16.096Z,17.91
2022-10-28T09:23:20.583Z,17.95
2022-10-28T09:26:28.453Z,18.25
2022-10-28T09:29:41.814Z,18.28
2022-10-28T09:32:33.160Z,18.42
2022-10-28T09:35:22.374Z,18.55
2022-10-28T09:38:30.066Z,18.71
2022-10-28T09:41:25.720Z,18.76
2022-10-28T09:44:41.823Z,18.83
2022-10-28T09:47:31.304Z,18.91
2022-10-28T09:50:23.940Z,19.00
2022-10-28T09:53:09.597Z,19.23
2022-10-28T09:55:56.929Z,19.23
2022-10-28T09:58:49.239Z,19.35
2022-10-28T10:01:36.957Z,19.45
2022-10-28T10:04:28.197Z,19.48
2022-10-28T10:07:44.376Z,19.58
2022-10-28T10:10:48.809Z,19.73
2022-10-28T10:13:38.875Z,19.86
2022-10-28T10:16:42.669Z,19.85
2022-10-28T10:19:28.943Z,20.03
2022-10-28T10:22:32.383Z,20.08
2022-10-28T10:25:18.674Z,20.18
2022-10-28T10:28:16.974Z,20.27
2022-10-28T10:31:08.004Z,20.45
2022-10-28T10:33:56.539Z,20.54
2022-10-28T10:36:49.959Z,20.60
2022-10-28T10:39:37.656Z,20.63
2022-10-28T10:42:25.524Z,20.64
2022-10-28T10:45:21.097Z,20.77
2022-10-28T10:48:12.788Z,20.88
2022-10-28T10:50:59.084Z,20.86
2022-10-28T10:53:49.242Z,21.03
2022-10-28T10:56:35.193Z,21.00
2022-10-28T10:59:30.028Z,21.07
2022-10-28T11:02:33.679Z,21.13
2022-10-28T11:05:24.457Z,21.23
2022-10-28T11:08:42.663Z,21.23
2022-10-28T11:11:40.003Z,21.35
2022-10-28T11:14:32.618Z,21.35
2022-10-28T11:17:24.325Z,21.28
2022-10-28T11:20:25.454Z,21.43
2022-10-28T11:23:17.550Z,21.48
2022-10-28T11:26:06.516Z,21.52
2022-10-28T11:29:23.584Z,21.43
2022-10-28T11:32:17.864Z,21.49
2022-10-28T11:35:21.381Z,21.61
2022-10-28T11:38:15.419Z,21.67
2022-10-28T11:41:07.584Z,21.57
2022-10-28T11:44:03.840Z,21.67
2022-10-28T11:47:00.976Z,21.67
2022-10-28T11:50:06.498Z,21.64
2022-10-28T11:53:10.937Z,21.73
2022-10-28T11:56:26.749Z,21.85
2022-10-28T11:59:24.606Z,21.94
2022-10-28T12:02:10.996Z,21.99
2022-10-28T12:05:10.240Z,22.05
2022-10-28T12:08:11.570Z,22.05
2022-10-28T12:11:03.537Z,22.10
2022-10-28T12:13:58.722Z,22.13
2022-10-28T12:16:49.329Z,22.14
2022-10-28T12:19:39.960Z,22.24
2022-10-28T12:22:58.442Z,22.25
2022-10-28T12:25:47.403Z,22.39
2022-10-28T12:28:54.310Z,22.35
2022-10-28T12:32:04.676Z,22.44
2022-10-28T12:34:55.880Z,22.56
2022-10-28T12:37:55.309Z,22.44
2022-10-28T12:40:46.292Z,22.66
2022-10-28T12:43:46.259Z,22.72
2022-10-28T12:47:00.543Z,22.68
2022-10-28T12:49:49.313Z,22.82
2022-10-28T12:52:42.156Z,22.92
2022-10-28T12:55:37.276Z,22.96
2022-10-28T12:58:50.027Z,23.13
2022-10-28T13:01:36.400Z,23.10
2022-10-28T13:04:22.660Z,23.39
2022-10-28T13:07:17.380Z,23.43
2022-10-28T13:10:06.444Z,23.55
2022-10-28T13:12:47.162Z,23.71
2022-10-28T13:15:14.615Z,23.89
2022-10-28T13:17:48.579Z,24.00
2022-10-28T13:20:38.976Z,24.18
2022-10-28T13:23:57.522Z,24.43
2022-10-28T13:26:31.601Z,25.35
2022-10-28T13:29:03.015Z,25.91
2022-10-28T13:31:41.713Z,26.43
2022-10-28T13:34:10.062Z,26.65
2022-10-28T13:36:42.250Z,26.87
2022-10-28T13:39:28.069Z,27.04
2022-10-28T13:42:31.580Z,26.93
2022-10-28T13:45:01.205Z,26.78
2022-10-28T13:47:33.609Z,26.48
2022-10-28T13:50:07.780Z,26.23
2022-10-28T13:52:36.636Z,26.02
2022-10-28T13:55:47.624Z,25.69
2022-10-28T13:58:23.045Z,25.40
2022-10-28T14:00:53.356Z,25.17
2022-10-28T14:03:28.320Z,25.01
2022-10-28T14:05:58.364Z,24.83
2022-10-28T14:08:32.510Z,24.74
2022-10-28T14:11:10.250Z,24.57
2022-10-28T14:13:40.137Z,24.35
2022-10-28T14:16:23.989Z,24.18
2022-10-28T14:19:15.401Z,24.10
2022-10-28T14:22:04.192Z,23.86
2022-10-28T14:24:33.267Z,23.84
2022-10-28T14:27:08.002Z,23.71
2022-10-28T14:29:49.172Z,23.56
2022-10-28T14:32:32.071Z,23.45
2022-10-28T14:35:13.244Z,23.32
2022-10-28T14:37:58.935Z,23.22
2022-10-28T14:40:51.599Z,23.14
2022-10-28T14:43:19.056Z,23.13
2022-10-28T14:46:05.499Z,22.95
2022-10-28T14:49:07.396Z,22.95
2022-10-28T14:51:40.072Z,22.81
2022-10-28T14:54:13.633Z,22.70
2022-10-28T14:56:41.668Z,22.69
2022-10-28T14:59:25.856Z,22.53
2022-10-28T15:01:56.393Z,22.56
2022-10-28T15:04:23.989Z,22.49
2022-10-28T15:06:52.135Z,22.46
2022-10-28T15:09:25.498Z,22.38
2022-10-28T15:11:56.186Z,22.27
2022-10-28T15:14:28.737Z,22.18
2022-10-28T15:16:56.590Z,22.19
2022-10-28T15:19:26.072Z,22.15
2022-10-28T15:22:04.705Z,22.05
2022-10-28T15:24:32.367Z,21.97
2022-10-28T15:27:00.119Z,21.91
2022-10-28T15:29:27.771Z,21.74
2022-10-28T15:32:24.646Z,21.34
2022-10-28T15:34:53.590Z,21.53
2022-10-28T15:37:24.263Z,21.48
2022-10-28T15:40:12.375Z,21.41
2022-10-28T15:42:50.478Z,21.39
2022-10-28T15:45:20.126Z,21.32
2022-10-28T15:47:47.675Z,21.32
2022-10-28T15:50:15.203Z,21.22
2022-10-28T15:52:48.161Z,21.17
2022-10-28T15:55:18.775Z,21.01
2022-10-28T15:57:48.471Z,21.00
2022-10-28T16:00:22.073Z,20.87
2022-10-28T16:02:56.000Z,20.92
2022-10-28T16:05:33.103Z,20.79
2022-10-28T16:08:02.736Z,20.73
2022-10-28T16:10:44.012Z,20.64
2022-10-28T16:13:19.361Z,20.51
2022-10-28T16:15:51.803Z,20.48
2022-10-28T16:18:19.704Z,20.37
2022-10-28T16:20:47.238Z,20.29
2022-10-28T16:23:17.641Z,20.20
2022-10-28T16:25:45.106Z,20.18
2022-10-28T16:28:31.566Z,19.91
2022-10-28T16:31:00.543Z,19.98
2022-10-28T16:33:37.353Z,19.83
2022-10-28T16:36:04.984Z,19.78
2022-10-28T16:38:33.269Z,19.73
2022-10-28T16:41:01.288Z,19.60
2022-10-28T16:43:30.056Z,19.56
2022-10-28T16:46:00.029Z,19.45
2022-10-28T16:48:29.733Z,19.26
2022-10-28T16:51:01.178Z,19.29
2022-10-28T16:53:29.206Z,19.18
2022-10-28T16:56:00.300Z,19.04
2022-10-28T16:58:31.175Z,18.93
2022-10-28T17:01:02.604Z,18.91
2022-10-28T17:03:30.137Z,18.84
2022-10-28T17:05:57.854Z,18.83
2022-10-28T17:08:48.857Z,18.73
2022-10-28T17:11:15.144Z,18.63
2022-10-28T17:13:42.846Z,18.60
2022-10-28T17:16:10.253Z,18.53
2022-10-28T17:18:37.779Z,18.43
2022-10-28T17:21:05.383Z,18.43
2022-10-28T17:23:32.920Z,18.34
2022-10-28T17:26:02.143Z,18.28
2022-10-28T17:28:29.695Z,18.24
2022-10-28T17:31:06.387Z,18.16
2022-10-28T17:33:34.975Z,18.07
2022-10-28T17:36:06.455Z,18.02
2022-10-28T17:38:34.167Z,18.00
2022-10-28T17:41:21.619Z,17.96
2022-10-28T17:44:09.123Z,17.85
2022-10-28T17:46:36.586Z,17.66
2022-10-28T17:49:08.645Z,17.71
2022-10-28T17:51:36.830Z,17.56
2022-10-28T17:54:06.227Z,17.59
2022-10-28T17:56:34.204Z,17.54
2022-10-28T17:59:01.993Z,17.44
2022-10-28T18:01:31.612Z,17.47
2022-10-28T18:03:59.304Z,17.46
2022-10-28T18:06:27.000Z,17.41
2022-10-28T18:08:54.522Z,17.37
2022-10-28T18:11:22.309Z,17.34
2022-10-28T18:13:51.599Z,17.30
2022-10-28T18:16:25.378Z,17.16
2022-10-28T18:18:53.846Z,17.21
2022-10-28T18:21:22.037Z,17.20
2022-10-28T18:23:53.290Z,17.10
2022-10-28T18:26:20.955Z,17.14
2022-10-28T18:28:49.186Z,17.01
2022-10-28T18:31:18.885Z,17.05
2022-10-28T18:33:46.764Z,17.02
2022-10-28T18:36:21.908Z,16.97
2022-10-28T18:38:50.146Z,16.93
2022-10-28T18:41:19.827Z,16.91
2022-10-28T18:43:47.579Z,16.87
2022-10-28T18:46:15.064Z,16.83
2022-10-28T18:48:42.544Z,16.77
2022-10-28T18:51:12.023Z,16.64
2022-10-28T18:53:41.927Z,16.74
2022-10-28T18:56:14.773Z,16.64
2022-10-28T18:58:42.858Z,16.67
2022-10-28T19:01:12.556Z,16.62
2022-10-28T19:03:40.774Z,16.63
2022-10-28T19:06:11.028Z,16.50
2022-10-28T19:08:38.745Z,16.41
2022-10-28T19:11:07.096Z,16.51
2022-10-28T19:13:36.229Z,16.49
2022-10-28T19:16:04.647Z,16.45
2022-10-28T19:18:35.458Z,16.36
2022-10-28T19:21:08.317Z,16.36
2022-10-28T19:23:35.971Z,16.28
2022-10-28T19:26:04.908Z,16.30
2022-10-28T19:28:46.563Z,16.09
2022-10-28T19:31:16.326Z,16.18
2022-10-28T19:33:45.257Z,16.19
2022-10-28T19:36:22.804Z,16.17
2022-10-28T19:38:53.647Z,16.14
2022-10-28T19:41:23.981Z,16.04
2022-10-28T19:44:01.644Z,16.02
2022-10-28T19:46:31.495Z,15.99
2022-10-28T19:49:00.280Z,15.98
2022-10-28T19:51:30.379Z,15.98
2022-10-28T19:54:00.462Z,15.95
2022-10-28T19:56:28.957Z,15.89
2022-10-28T19:58:58.742Z,15.85
2022-10-28T20:01:28.837Z,15.85
2022-10-28T20:03:56.722Z,15.85
2022-10-28T20:06:26.458Z,15.73
2022-10-28T20:08:53.940Z,15.78
2022-10-28T20:11:26.168Z,15.69
2022-10-28T20:13:56.812Z,15.68
2022-10-28T20:16:25.294Z,15.67
2022-10-28T20:18:56.143Z,15.62
2022-10-28T20:21:25.953Z,15.60
2022-10-28T20:23:54.817Z,15.58
2022-10-28T20:26:25.023Z,15.48
2022-10-28T20:28:52.880Z,15.51
2022-10-28T20:31:22.642Z,15.47
2022-10-28T20:33:51.975Z,15.33
2022-10-28T20:36:33.734Z,15.39
2022-10-28T20:39:18.184Z,15.38
2022-10-28T20:41:47.133Z,15.34
2022-10-28T20:44:15.117Z,15.31
2022-10-28T20:46:44.994Z,15.29
2022-10-28T20:49:13.331Z,15.22
2022-10-28T20:51:41.229Z,15.27
2022-10-28T20:54:08.846Z,15.26
2022-10-28T20:56:38.397Z,15.23
2022-10-28T20:59:06.364Z,15.20
2022-10-28T21:01:36.366Z,15.14
2022-10-28T21:04:06.676Z,15.04
2022-10-28T21:06:34.865Z,15.03
2022-10-28T21:09:02.464Z,15.03
2022-10-28T21:11:29.898Z,14.95
2022-10-28T21:13:59.409Z,14.93
2022-10-28T21:16:28.475Z,14.93
2022-10-28T21:18:56.179Z,14.88
2022-10-28T21:21:24.414Z,14.89
2022-10-28T21:23:51.915Z,14.87
2022-10-28T21:26:19.416Z,14.76
2022-10-28T21:28:52.124Z,14.83
2022-10-28T21:31:20.780Z,14.80
2022-10-28T21:36:19.545Z,14.70
2022-10-28T21:38:47.078Z,14.65
2022-10-28T21:41:15.897Z,14.65
2022-10-28T21:43:45.089Z,14.65
2022-10-28T21:46:12.659Z,14.59
2022-10-28T21:48:40.336Z,14.59
2022-10-28T21:51:13.476Z,14.55
2022-10-28T21:53:43.369Z,14.53
2022-10-28T21:56:18.264Z,14.46
2022-10-28T21:58:51.264Z,14.51
2022-10-28T22:01:21.192Z,14.51
2022-10-28T22:03:49.189Z,14.45
2022-10-28T22:06:16.695Z,14.46
2022-10-28T22:08:44.365Z,14.46
2022-10-28T22:11:14.519Z,14.43
2022-10-28T22:13:42.025Z,14.40
2022-10-28T22:16:14.597Z,14.35
2022-10-28T22:18:42.221Z,14.40
2022-10-28T22:21:15.645Z,14.38
2022-10-28T22:23:43.097Z,14.37
2022-10-28T22:26:14.602Z,14.35
2022-10-28T22:28:42.082Z,14.33
2022-10-28T22:31:12.124Z,14.31
2022-10-28T22:33:39.821Z,14.33
2022-10-28T22:36:12.703Z,14.26
2022-10-28T22:38:40.863Z,14.21
2022-10-28T22:41:14.351Z,14.22
2022-10-28T22:43:43.075Z,14.26
2022-10-28T22:46:11.077Z,14.22
2022-10-28T22:48:38.786Z,14.10
2022-10-28T22:51:06.740Z,14.18
2022-10-28T22:53:34.308Z,14.15
2022-10-28T22:56:01.732Z,14.08
2022-10-28T22:58:29.304Z,14.02
2022-10-28T23:01:15.570Z,13.92
2022-10-28T23:03:45.222Z,13.99
2022-10-28T23:06:14.364Z,13.92
2022-10-28T23:08:42.832Z,14.00
2022-10-28T23:11:11.131Z,13.99
2022-10-28T23:13:39.199Z,13.93
2022-10-28T23:16:15.087Z,13.88
2022-10-28T23:18:43.486Z,13.88
2022-10-28T23:21:12.185Z,13.74
2022-10-28T23:23:40.352Z,13.85
2022-10-28T23:26:09.627Z,13.74
2022-10-28T23:28:37.104Z,13.71
2022-10-28T23:31:05.715Z,13.67
2022-10-28T23:33:34.393Z,13.64
2022-10-28T23:36:06.128Z,13.63
2022-10-28T23:38:33.752Z,13.62
2022-10-28T23:41:06.703Z,13.57
2022-10-28T23:43:34.419Z,13.56
2022-10-28T23:46:01.972Z,13.51
2022-10-28T23:48:29.757Z,13.49
2022-10-28T23:50:57.312Z,13.46
2022-10-28T23:53:25.028Z,13.48
2022-10-28T23:55:52.960Z,13.45
2022-10-28T23:58:22.010Z,13.34
